Skipwith, VA

10:12 PM EST on December 08, 2019 (GMT -0500)
Red Oak | | Change Station

Elev 459 ft 36.79 °N, 78.62 °W | Updated 13 seconds ago

Rain
Rain
43.8 °F
Feels Like 44 °F
N
0
Wind Variable Wind from WNW
Gusts 0.0 mph

Today
High -- | Low -- °F
--% Chance of Precip.
Yesterday
High -- | Low -- °F
Precip. -- in
Pressure 30.29 in
Visibility 4.0 miles
Clouds Mostly Cloudy 200 ft
Mostly Cloudy 900 ft
Overcast 1500 ft
Windchill 44 °F
Dew Point 36 °F
Humidity 74%
Rainfall 0.00 in
Snow Depth Not available.
7:13 AM 4:57 PM
Waxing Gibbous, 90% visible
METAR KHNZ 090255Z AUTO 00000KT 4SM -RA BKN002 BKN009 OVC015 05/05 A3029 RMK AO2 P0004 60004 T00500046
Pressure 30.29 in
Visibility 4.0 miles
Clouds Mostly Cloudy 200 ft
Mostly Cloudy 900 ft
Overcast 1500 ft
Windchill 44 °F
Dew Point 36 °F
Humidity 74%
Rainfall 0.00 in
Snow Depth Not available.
7:13 AM 4:57 PM
Waxing Gibbous, 90% visible
METAR KHNZ 090255Z AUTO 00000KT 4SM -RA BKN002 BKN009 OVC015 05/05 A3029 RMK AO2 P0004 60004 T00500046

Get Severe Weather Alerts

Thanks for signing up!

Be on the lookout for a verification email in your inbox.

You'll start receiving the daily forecast at 6 AM.

×

10-Day Weather Forecast

Almanac

Astronomy

Dec. 08, 2019 Rise Set
Actual Time
Civil Twilight
Nautical Twilight
Astronomical Twilight
Moon
Length of Visible Light
Length of Day
Tomorrow will be .
, % of the Moon is Illuminated

Today's Extremes

State Highs State Lows

Community

WunderPhotos

Category 6

Welcome to Category 6. This is the collective home for Weather Underground's featured writeups by Dr. Jeff Masters (right), Bob Henson (left), Chris Burt, and other regular contributors.

Nearby

Air Quality

  Air Quality AQ Index Pollutant
Not available.

Snow Depth

Station Depth Elevation

Earthquake Activity

City Distance Mag. Time & Date
Minimum magnitude displayed is 2.5.

Coastal Water Temperatures

Place Temperature

Stations

Nearby Weather Stations

Station Location Temp. Windchill Dew Point Humidity Wind Precip. Elev Updated Type
                   

Watches & Warnings

There are currently no watches in effect.